Time;durP1;ratioP1;P1;durP2;ratioP2;P2;SDS_P1;SDS_P2;PMS_P1;PMS_P2;Temp;Humidity;BMP_temperature;BMP_pressure;BME280_temperature;BME280_humidity;BME280_pressure;Samples;Min_cycle;Max_cycle;Signal;HPM_P1;HPM_P2
2024/03/27 00:01:09;;;;;;;628.33;376.15;;;;;;;20.66;37.90;98705.78;5128649;27;20725;-72
2024/03/27 00:03:37;;;;;;;564.55;331.73;;;;;;;20.65;37.77;98712.13;5130587;27;20050;-73
2024/03/27 00:06:06;;;;;;;579.63;342.25;;;;;;;20.53;37.97;98709.50;5107871;27;20027;-71
2024/03/27 00:08:32;;;;;;;682.38;417.90;;;;;;;20.59;38.00;98713.03;5124098;27;20449;-73
2024/03/27 00:11:00;;;;;;;33.38;21.88;;;;;;;20.62;37.90;98716.00;5119404;27;20046;-72
2024/03/27 00:13:25;;;;;;;2.28;2.08;;;;;;;20.60;38.03;98719.94;5123543;27;20039;-71
2024/03/27 00:15:52;;;;;;;2.03;1.80;;;;;;;20.52;37.79;98713.19;5124736;27;20036;-72
2024/03/27 00:18:18;;;;;;;2.30;2.10;;;;;;;20.62;37.91;98712.56;5124315;27;20035;-71
2024/03/27 00:20:44;;;;;;;2.40;2.20;;;;;;;20.58;37.83;98706.16;5122867;27;20039;-71
2024/03/27 00:23:09;;;;;;;2.75;2.28;;;;;;;20.61;37.77;98701.19;5118259;27;20091;-71
2024/03/27 00:25:36;;;;;;;40.47;32.35;;;;;;;20.55;37.82;98698.69;5117903;27;20054;-72
2024/03/27 00:28:03;;;;;;;16.63;15.05;;;;;;;20.62;37.44;98694.84;5130151;27;20038;-71
2024/03/27 00:30:28;;;;;;;6.18;5.57;;;;;;;20.61;37.72;98695.91;5127639;27;20039;-71
2024/03/27 00:32:58;;;;;;;4.10;3.70;;;;;;;20.59;37.69;98697.19;5127511;27;20099;-71
2024/03/27 00:35:24;;;;;;;232.27;152.55;;;;;;;20.52;37.81;98679.63;5120463;27;20066;-71
2024/03/27 00:37:53;;;;;;;3.22;2.28;;;;;;;20.37;37.81;98662.63;5121950;27;20031;-71
2024/03/27 00:40:19;;;;;;;5.28;4.70;;;;;;;20.56;37.68;98692.38;5120504;27;20043;-71
2024/03/27 00:42:46;;;;;;;139.20;96.43;;;;;;;20.54;37.65;98686.50;5123351;27;20038;-72
2024/03/27 00:45:13;;;;;;;90.45;69.47;;;;;;;20.52;37.85;98684.09;5126212;27;20058;-71
2024/03/27 00:47:40;;;;;;;10.40;9.48;;;;;;;20.54;37.70;98676.75;5121157;27;20596;-71
2024/03/27 00:50:06;;;;;;;14.30;12.77;;;;;;;20.54;37.73;98668.00;5122576;27;20034;-72
2024/03/27 00:52:32;;;;;;;53.88;42.22;;;;;;;20.51;37.69;98670.09;5123475;27;20309;-72
2024/03/27 00:54:57;;;;;;;17.00;15.25;;;;;;;20.50;37.93;98665.03;5126097;27;20039;-71
2024/03/27 00:57:23;;;;;;;12.30;10.75;;;;;;;20.50;37.62;98665.03;5130225;27;20063;-71
2024/03/27 00:59:48;;;;;;;20.17;18.10;;;;;;;20.56;37.66;98666.72;5120791;27;20044;-71
2024/03/27 01:02:14;;;;;;;18.42;16.85;;;;;;;20.46;37.81;98664.69;5128080;27;20465;-71
2024/03/27 01:04:39;;;;;;;192.45;134.20;;;;;;;20.46;37.73;98669.16;5127518;27;20062;-73
2024/03/27 01:07:05;;;;;;;276.73;177.43;;;;;;;20.50;37.77;98667.69;5125451;27;20035;-70
2024/03/27 01:09:30;;;;;;;104.95;73.18;;;;;;;20.45;37.91;98665.72;5103035;27;20104;-71
2024/03/27 01:11:56;;;;;;;164.07;116.00;;;;;;;20.42;37.82;98652.97;5107136;27;20054;-72
2024/03/27 01:14:21;;;;;;;131.90;103.43;;;;;;;20.44;37.79;98656.19;5128510;27;20047;-71
2024/03/27 01:16:47;;;;;;;173.48;120.40;;;;;;;20.44;37.84;98660.66;5116890;27;20518;-70
2024/03/27 01:19:12;;;;;;;29.20;26.50;;;;;;;20.45;37.64;98667.56;5121375;27;20039;-72
2024/03/27 01:21:38;;;;;;;77.25;61.95;;;;;;;20.43;37.73;98651.94;5123102;27;20038;-70
2024/03/27 01:24:04;;;;;;;23.63;21.05;;;;;;;20.41;37.88;98659.31;5121967;27;20623;-71
2024/03/27 01:26:29;;;;;;;204.55;132.50;;;;;;;20.46;37.84;98654.09;5107141;27;20049;-71
2024/03/27 01:28:55;;;;;;;77.35;68.97;;;;;;;20.44;37.74;98650.09;5127673;27;20058;-71
2024/03/27 01:31:20;;;;;;;141.38;101.30;;;;;;;20.41;37.78;98650.56;5126969;27;20046;-71
2024/03/27 01:33:49;;;;;;;138.13;101.57;;;;;;;20.37;37.88;98652.84;5125258;27;20058;-71
2024/03/27 01:36:14;;;;;;;290.50;165.30;;;;;;;20.34;37.96;98641.97;5127800;27;20039;-70
2024/03/27 01:38:40;;;;;;;421.70;219.93;;;;;;;20.43;37.87;98651.94;5128265;27;20035;-71
2024/03/27 01:41:06;;;;;;;153.02;107.30;;;;;;;20.41;37.76;98654.03;5122888;27;20039;-70
2024/03/27 01:43:31;;;;;;;247.05;146.30;;;;;;;20.44;37.62;98656.19;5125435;27;20467;-71
2024/03/27 01:45:58;;;;;;;309.23;172.38;;;;;;;20.35;37.76;98646.19;5124984;27;20044;-70
2024/03/27 01:48:25;;;;;;;246.15;143.20;;;;;;;20.36;37.66;98658.38;5127298;27;20035;-70
2024/03/27 01:50:52;;;;;;;414.63;213.73;;;;;;;20.40;37.74;98652.38;5126047;27;20096;-70
2024/03/27 01:53:19;;;;;;;232.02;138.60;;;;;;;20.38;37.85;98657.09;5131603;27;20076;-71
2024/03/27 01:55:46;;;;;;;210.52;129.98;;;;;;;20.29;37.94;98653.25;5126863;27;20039;-70
2024/03/27 01:58:12;;;;;;;153.73;105.60;;;;;;;20.36;37.81;98645.16;5135429;27;20038;-71
2024/03/27 02:00:37;;;;;;;148.57;104.32;;;;;;;20.27;37.91;98630.69;5125963;27;20031;-71
2024/03/27 02:03:04;;;;;;;299.67;163.45;;;;;;;20.32;38.15;98633.47;5128029;27;20031;-71
2024/03/27 02:05:29;;;;;;;481.13;240.02;;;;;;;20.26;38.00;98624.63;5127350;27;20036;-71
2024/03/27 02:07:55;;;;;;;356.92;187.73;;;;;;;20.27;37.96;98626.22;5126086;27;20049;-71
2024/03/27 02:10:20;;;;;;;452.65;227.90;;;;;;;20.32;37.89;98617.59;5124394;27;20151;-69
2024/03/27 02:12:46;;;;;;;109.32;88.13;;;;;;;20.28;37.99;98627.03;5121544;27;20071;-71
2024/03/27 02:15:12;;;;;;;172.50;114.20;;;;;;;20.29;37.95;98618.88;5107144;27;20116;-71
2024/03/27 02:17:37;;;;;;;208.13;127.18;;;;;;;20.37;37.91;98613.22;5130680;27;20122;-71
2024/03/27 02:20:06;;;;;;;268.17;150.80;;;;;;;20.48;37.64;98617.69;5132762;27;20085;-71
2024/03/27 02:22:33;;;;;;;413.33;217.27;;;;;;;20.49;37.61;98600.78;5122939;27;20042;-71
2024/03/27 02:25:12;;;;;;;155.48;107.32;;;;;;;20.43;37.73;98609.63;5123689;27;20736;-71
2024/03/27 02:27:38;;;;;;;62.33;56.40;;;;;;;20.49;37.79;98600.78;5126940;27;20051;-72
2024/03/27 02:30:04;;;;;;;321.85;175.82;;;;;;;20.50;37.53;98604.22;5129915;27;20042;-70
2024/03/27 02:32:29;;;;;;;438.17;231.00;;;;;;;20.49;37.71;98602.63;5133808;27;20051;-71
2024/03/27 02:34:55;;;;;;;318.75;177.95;;;;;;;20.49;37.79;98598.13;5128834;27;20053;-71
2024/03/27 02:37:21;;;;;;;495.40;262.80;;;;;;;20.40;37.81;98582.84;5124118;27;20039;-72
2024/03/27 02:39:46;;;;;;;346.42;189.40;;;;;;;20.40;37.79;98593.44;5127351;27;20047;-71
2024/03/27 02:42:12;;;;;;;245.02;142.98;;;;;;;20.42;37.89;98589.53;5124131;27;20039;-71
2024/03/27 02:44:37;;;;;;;236.15;139.73;;;;;;;20.44;37.86;98579.53;5131186;27;20034;-71
2024/03/27 02:47:03;;;;;;;249.82;146.57;;;;;;;20.39;37.76;98579.41;5128363;27;20039;-70
2024/03/27 02:49:29;;;;;;;259.13;149.88;;;;;;;20.36;38.09;98582.53;5131087;27;20039;-71
2024/03/27 02:51:54;;;;;;;3.17;2.17;;;;;;;20.40;37.88;98580.22;5119930;27;20043;-70
2024/03/27 02:54:20;;;;;;;2.92;2.10;;;;;;;20.41;37.87;98574.72;5129767;27;20042;-71
2024/03/27 02:56:45;;;;;;;4.43;2.50;;;;;;;20.38;37.98;98571.72;5123995;27;20047;-70
2024/03/27 02:59:10;;;;;;;2.30;2.10;;;;;;;20.40;37.79;98569.63;5118329;27;20046;-70
2024/03/27 03:01:36;;;;;;;2.47;2.10;;;;;;;20.35;37.96;98570.34;5115166;27;20035;-71
2024/03/27 03:04:01;;;;;;;2.38;2.17;;;;;;;20.38;37.79;98569.88;5121267;27;20031;-71
2024/03/27 03:06:27;;;;;;;2.90;2.22;;;;;;;20.37;38.03;98562.97;5126958;27;20035;-70
2024/03/27 03:08:52;;;;;;;3.10;2.40;;;;;;;20.36;37.92;98558.75;5120553;27;20474;-71
2024/03/27 03:11:18;;;;;;;2.85;2.30;;;;;;;20.40;37.81;98556.41;5120667;27;20054;-70
2024/03/27 03:13:44;;;;;;;4.43;1.92;;;;;;;20.36;37.85;98552.66;5122579;27;20103;-70
2024/03/27 03:16:09;;;;;;;3.13;2.42;;;;;;;20.35;38.04;98557.13;5125326;27;20054;-70
2024/03/27 03:18:35;;;;;;;2.30;2.10;;;;;;;20.39;37.81;98552.16;5118406;27;20039;-70
2024/03/27 03:21:04;;;;;;;2.40;2.20;;;;;;;20.35;37.75;98557.13;5118251;27;20035;-70
2024/03/27 03:23:31;;;;;;;2.60;2.30;;;;;;;20.32;37.77;98554.97;5101687;27;20075;-70
2024/03/27 03:25:57;;;;;;;2.22;2.03;;;;;;;20.33;37.96;98558.41;5104171;27;20067;-70
2024/03/27 03:28:22;;;;;;;2.40;2.20;;;;;;;20.32;37.91;98554.19;5123962;27;20034;-71
2024/03/27 03:30:48;;;;;;;2.35;2.15;;;;;;;20.26;38.05;98555.91;5111512;27;20038;-71
2024/03/27 03:33:13;;;;;;;3.67;2.50;;;;;;;20.35;37.74;98558.97;5127711;27;20114;-70
2024/03/27 03:35:39;;;;;;;3.20;2.20;;;;;;;20.33;37.85;98563.72;5117798;27;20558;-71
2024/03/27 03:38:04;;;;;;;2.30;2.10;;;;;;;20.32;37.95;98562.09;5118437;27;20038;-71
2024/03/27 03:40:48;;;;;;;2.63;2.30;;;;;;;20.26;38.05;98561.19;5126202;27;20047;-71
2024/03/27 03:43:14;;;;;;;2.20;2.00;;;;;;;20.32;37.87;98562.91;5119613;27;20034;-71
2024/03/27 03:45:40;;;;;;;2.58;2.38;;;;;;;20.22;38.11;98558.22;5125767;27;20118;-71
2024/03/27 03:48:06;;;;;;;2.92;2.47;;;;;;;20.27;37.94;98565.44;5124907;27;20114;-70
2024/03/27 03:50:32;;;;;;;2.50;2.30;;;;;;;20.27;37.97;98560.16;5125198;27;20042;-72
2024/03/27 03:52:57;;;;;;;2.70;2.30;;;;;;;20.30;37.82;98564.19;5122726;27;20565;-71
2024/03/27 03:55:23;;;;;;;2.33;2.05;;;;;;;20.28;37.91;98560.94;5126343;27;20050;-71
2024/03/27 03:57:49;;;;;;;2.47;2.03;;;;;;;20.27;37.82;98562.78;5121479;27;20146;-70
2024/03/27 04:00:20;;;;;;;2.30;2.10;;;;;;;20.20;37.91;98557.66;5129081;27;20027;-71
2024/03/27 04:02:46;;;;;;;2.33;1.98;;;;;;;20.21;37.89;98551.34;5119880;27;20054;-71
2024/03/27 04:05:12;;;;;;;3.08;2.17;;;;;;;20.27;37.72;98551.41;5108738;27;20039;-71
2024/03/27 04:07:38;;;;;;;2.67;2.10;;;;;;;20.21;37.88;98540.75;5126951;27;20046;-70
2024/03/27 04:10:04;;;;;;;3.15;2.65;;;;;;;20.16;37.96;98545.16;5123489;27;20062;-71
2024/03/27 04:12:29;;;;;;;2.65;2.30;;;;;;;20.18;37.89;98545.72;5127703;27;20074;-70
2024/03/27 04:14:55;;;;;;;2.80;2.22;;;;;;;20.16;37.93;98537.25;5124974;27;20038;-70
2024/03/27 04:17:20;;;;;;;2.38;2.17;;;;;;;20.15;37.96;98539.06;5127030;27;20031;-69
2024/03/27 04:19:46;;;;;;;2.38;2.17;;;;;;;20.21;37.75;98535.47;5121522;27;20038;-71
2024/03/27 04:22:11;;;;;;;2.55;2.33;;;;;;;20.15;37.96;98535.63;5108256;27;20205;-71
2024/03/27 04:24:37;;;;;;;2.38;2.17;;;;;;;20.18;37.87;98551.00;5124110;27;20035;-71
2024/03/27 04:27:03;;;;;;;2.25;2.05;;;;;;;20.20;37.67;98543.66;5124027;27;20051;-71
2024/03/27 04:29:30;;;;;;;2.20;2.00;;;;;;;20.16;37.94;98545.16;5127568;27;20062;-72
2024/03/27 04:31:55;;;;;;;2.72;2.22;;;;;;;20.20;37.85;98549.72;5122457;27;20058;-70
2024/03/27 04:34:21;;;;;;;2.60;2.40;;;;;;;20.14;37.96;98544.59;5122716;27;20603;-70
2024/03/27 04:36:46;;;;;;;2.78;2.15;;;;;;;20.19;37.73;98552.63;5121575;27;20463;-71
2024/03/27 04:39:12;;;;;;;3.33;2.50;;;;;;;20.16;37.92;98553.91;5119437;27;20118;-70
2024/03/27 04:41:38;;;;;;;2.63;2.30;;;;;;;20.24;37.82;98552.69;5123750;27;20046;-71
2024/03/27 04:44:04;;;;;;;2.70;2.42;;;;;;;20.32;37.48;98557.63;5122356;27;20299;-70
2024/03/27 04:46:29;;;;;;;2.78;2.28;;;;;;;20.42;37.52;98559.66;5117338;27;20100;-72
2024/03/27 04:48:55;;;;;;;2.90;2.30;;;;;;;20.39;37.50;98552.97;5130613;27;20046;-70
2024/03/27 04:51:20;;;;;;;2.47;2.28;;;;;;;20.41;37.63;98545.63;5126706;27;20046;-70
2024/03/27 04:53:46;;;;;;;2.38;2.15;;;;;;;20.31;37.65;98540.16;5123901;27;20023;-70
2024/03/27 04:56:11;;;;;;;2.67;2.10;;;;;;;20.36;37.75;98547.38;5128033;27;20428;-70
2024/03/27 04:58:37;;;;;;;3.40;2.70;;;;;;;20.35;37.77;98543.13;5128610;27;20049;-71
2024/03/27 05:01:02;;;;;;;2.42;2.17;;;;;;;20.27;37.92;98539.00;5129867;27;20091;-70
2024/03/27 05:03:28;;;;;;;2.63;2.05;;;;;;;20.28;37.80;98531.88;5119272;27;20031;-70
2024/03/27 05:05:53;;;;;;;2.90;2.40;;;;;;;20.35;37.84;98530.72;5116729;27;20039;-71
2024/03/27 05:08:19;;;;;;;2.70;2.30;;;;;;;20.32;37.88;98527.75;5122670;27;20039;-72
2024/03/27 05:10:44;;;;;;;2.70;2.40;;;;;;;20.33;38.09;98537.28;5106432;28;20044;-71
2024/03/27 05:13:11;;;;;;;2.55;2.10;;;;;;;20.31;37.73;98532.22;5126329;27;20116;-71
2024/03/27 05:15:36;;;;;;;2.53;2.33;;;;;;;20.27;37.90;98519.72;5126552;27;20050;-70
2024/03/27 05:18:04;;;;;;;2.83;2.25;;;;;;;20.26;37.94;98526.84;5125395;27;20120;-70
2024/03/27 05:20:30;;;;;;;2.70;2.30;;;;;;;20.28;37.94;98519.47;5125232;27;20114;-70
2024/03/27 05:22:55;;;;;;;2.60;2.40;;;;;;;20.18;38.04;98522.75;5123985;27;20035;-71
2024/03/27 05:25:23;;;;;;;2.38;2.05;;;;;;;20.24;37.83;98523.63;5124139;27;20096;-70
2024/03/27 05:27:48;;;;;;;3.10;2.10;;;;;;;20.22;37.94;98523.88;5121484;27;20031;-69
2024/03/27 05:30:15;;;;;;;2.83;2.35;;;;;;;20.20;37.96;98527.78;5121813;27;20468;-69
2024/03/27 05:32:40;;;;;;;2.45;2.20;;;;;;;20.24;37.91;98523.63;5133692;27;20103;-69
2024/03/27 05:35:06;;;;;;;2.78;2.03;;;;;;;20.25;37.87;98519.94;5125210;27;20039;-70
2024/03/27 05:37:33;;;;;;;3.25;2.65;;;;;;;20.18;38.01;98504.25;5124093;27;20054;-70
2024/03/27 05:39:58;;;;;;;2.47;2.28;;;;;;;20.16;38.13;98503.69;5124667;27;20054;-71
2024/03/27 05:42:24;;;;;;;2.20;1.90;;;;;;;20.15;38.00;98506.56;5121639;27;20050;-70
2024/03/27 05:44:50;;;;;;;2.25;2.05;;;;;;;20.15;38.05;98523.22;5121272;27;20081;-69
2024/03/27 05:47:15;;;;;;;2.50;2.30;;;;;;;20.14;38.09;98510.25;5124484;27;20070;-70
2024/03/27 05:49:41;;;;;;;3.17;2.45;;;;;;;20.18;37.95;98511.38;5120903;27;20426;-70
2024/03/27 05:52:06;;;;;;;2.55;2.35;;;;;;;20.17;37.85;98505.28;5123078;27;20716;-70
2024/03/27 05:54:32;;;;;;;2.28;2.08;;;;;;;20.19;38.00;98515.63;5128293;27;20467;-69
2024/03/27 05:57:00;;;;;;;2.50;2.30;;;;;;;20.23;38.06;98529.94;5129114;27;20114;-71
2024/03/27 05:59:26;;;;;;;2.53;2.20;;;;;;;20.15;38.02;98525.88;5120973;27;20121;-69
2024/03/27 06:01:51;;;;;;;2.40;2.20;;;;;;;20.22;37.76;98531.78;5121676;27;20038;-69
2024/03/27 06:04:17;;;;;;;2.83;2.40;;;;;;;20.17;37.97;98537.00;5125277;27;20031;-70
2024/03/27 06:06:42;;;;;;;2.75;2.10;;;;;;;20.13;38.05;98527.94;5126436;27;20371;-72
2024/03/27 06:09:08;;;;;;;2.75;2.50;;;;;;;20.13;38.28;98524.50;5117040;27;20039;-70
2024/03/27 06:11:35;;;;;;;2.15;1.98;;;;;;;20.15;38.24;98533.78;5125381;27;20043;-70
2024/03/27 06:14:00;;;;;;;3.85;2.70;;;;;;;20.15;38.10;98533.00;5114852;27;20155;-70
2024/03/27 06:16:26;;;;;;;2.63;2.22;;;;;;;20.12;38.00;98522.91;5123609;27;20047;-70
2024/03/27 06:18:54;;;;;;;2.85;2.30;;;;;;;20.11;38.05;98531.88;5127856;27;20430;-70
2024/03/27 06:21:20;;;;;;;2.80;2.53;;;;;;;20.15;38.10;98538.28;5126990;27;20490;-70
2024/03/27 06:23:45;;;;;;;2.30;2.10;;;;;;;20.14;38.20;98532.19;5135984;27;20121;-70
2024/03/27 06:26:11;;;;;;;2.40;2.20;;;;;;;20.13;38.21;98532.44;5125562;27;20043;-70
2024/03/27 06:28:36;;;;;;;2.40;2.20;;;;;;;20.14;38.24;98534.84;5124872;27;20039;-70
2024/03/27 06:31:08;;;;;;;2.60;2.20;;;;;;;20.11;38.15;98524.75;5127822;27;20027;-70
2024/03/27 06:33:34;;;;;;;3.05;2.33;;;;;;;20.15;37.97;98519.78;5119050;27;20475;-70
2024/03/27 06:36:00;;;;;;;2.30;2.10;;;;;;;20.09;38.06;98532.06;5134201;27;20042;-70
2024/03/27 06:38:27;;;;;;;2.35;2.00;;;;;;;20.07;38.37;98520.16;5118653;27;20043;-71
2024/03/27 06:40:53;;;;;;;2.58;2.30;;;;;;;20.10;38.29;98532.88;5124508;27;20039;-70
2024/03/27 06:43:22;;;;;;;3.38;2.30;;;;;;;20.15;38.15;98531.16;5130784;27;20126;-70
2024/03/27 06:45:48;;;;;;;2.45;2.25;;;;;;;20.11;38.27;98530.03;5126741;27;20054;-70
2024/03/27 06:48:15;;;;;;;2.50;2.20;;;;;;;20.12;38.32;98546.69;5128984;27;20039;-70
2024/03/27 06:50:41;;;;;;;2.88;2.42;;;;;;;20.15;38.24;98538.28;5107253;27;20452;-70
2024/03/27 06:53:07;;;;;;;2.83;2.40;;;;;;;20.10;38.26;98536.31;5125861;27;20039;-72
2024/03/27 06:55:32;;;;;;;2.35;1.95;;;;;;;20.12;38.12;98546.69;5124805;27;20630;-71
2024/03/27 06:57:58;;;;;;;2.92;2.20;;;;;;;20.15;38.18;98551.50;5108331;27;20661;-71
2024/03/27 07:00:23;;;;;;;2.97;2.30;;;;;;;20.17;38.21;98555.50;5116672;27;20050;-72
2024/03/27 07:02:49;;;;;;;2.60;2.40;;;;;;;20.19;38.16;98553.41;5122721;27;20047;-71
2024/03/27 07:05:16;;;;;;;2.50;2.30;;;;;;;20.15;38.38;98562.84;5129761;27;20062;-71
2024/03/27 07:07:42;;;;;;;2.83;2.13;;;;;;;20.14;38.26;98555.16;5122841;27;20047;-71
2024/03/27 07:10:08;;;;;;;2.45;2.15;;;;;;;20.16;38.20;98548.59;5126646;27;20054;-72
2024/03/27 07:12:39;;;;;;;2.40;2.20;;;;;;;20.16;38.26;98558.38;5131969;27;20067;-71
2024/03/27 07:15:06;;;;;;;2.28;2.00;;;;;;;20.22;38.25;98571.44;5124837;27;20046;-72
2024/03/27 07:17:32;;;;;;;2.05;1.88;;;;;;;20.60;37.54;98561.28;5125011;27;20035;-71
2024/03/27 07:19:57;;;;;;;2.30;2.10;;;;;;;21.38;36.67;98553.25;5128936;27;20084;-71
2024/03/27 07:22:23;;;;;;;3.22;2.40;;;;;;;22.22;35.26;98552.13;5127580;27;20035;-72
2024/03/27 07:24:49;;;;;;;2.75;2.03;;;;;;;22.55;34.68;98543.97;5129427;27;20051;-71
2024/03/27 07:27:16;;;;;;;2.22;2.03;;;;;;;22.46;34.79;98547.34;5129459;27;20408;-71
2024/03/27 07:29:41;;;;;;;1.98;1.88;;;;;;;22.40;35.03;98558.94;5116882;27;20039;-72
2024/03/27 07:32:07;;;;;;;2.40;2.20;;;;;;;22.25;35.25;98555.09;5129093;27;20289;-72
2024/03/27 07:34:32;;;;;;;2.25;1.88;;;;;;;22.15;35.42;98556.84;5127705;27;20142;-72
2024/03/27 07:36:58;;;;;;;2.50;2.30;;;;;;;21.97;35.98;98566.69;5123362;27;20042;-72
2024/03/27 07:39:24;;;;;;;2.30;2.10;;;;;;;21.90;36.20;98562.63;5105701;27;20383;-72
2024/03/27 07:41:49;;;;;;;2.63;2.33;;;;;;;21.76;36.02;98562.22;5129780;27;20060;-72
2024/03/27 07:44:15;;;;;;;1.85;1.75;;;;;;;21.72;36.12;98563.72;5126759;27;20039;-72
2024/03/27 07:46:40;;;;;;;1.98;1.77;;;;;;;21.68;36.24;98568.72;5124509;27;20039;-71
2024/03/27 07:49:06;;;;;;;2.25;2.05;;;;;;;21.64;36.54;98564.19;5106187;27;20039;-71
2024/03/27 07:51:32;;;;;;;2.22;2.03;;;;;;;21.60;36.86;98558.56;5135057;27;20639;-72
2024/03/27 07:53:59;;;;;;;2.67;2.10;;;;;;;21.48;36.64;98560.53;5131168;27;20043;-72
2024/03/27 07:56:24;;;;;;;2.47;2.28;;;;;;;21.48;36.71;98560.53;5122217;27;20042;-71
2024/03/27 07:58:52;;;;;;;2.85;2.20;;;;;;;21.42;36.80;98561.50;5108067;27;20039;-72
2024/03/27 08:01:18;;;;;;;2.00;1.90;;;;;;;21.40;37.05;98558.31;5125349;27;20023;-71
2024/03/27 08:03:44;;;;;;;2.47;2.00;;;;;;;21.33;36.95;98550.53;5108042;27;20035;-71
2024/03/27 08:06:13;;;;;;;1.90;1.80;;;;;;;21.31;37.34;98549.16;5102279;27;20046;-71
2024/03/27 08:08:39;;;;;;;2.15;1.95;;;;;;;21.29;37.10;98552.06;5130684;27;20552;-72
2024/03/27 08:11:06;;;;;;;2.45;2.20;;;;;;;21.24;37.48;98557.28;5122903;27;20043;-71
2024/03/27 08:13:32;;;;;;;2.85;2.30;;;;;;;21.18;37.44;98550.28;5123063;27;20043;-71
2024/03/27 08:16:00;;;;;;;2.00;1.80;;;;;;;21.24;37.33;98559.09;5123394;27;20027;-71
2024/03/27 08:18:25;;;;;;;2.80;2.20;;;;;;;21.23;37.27;98568.09;5120868;27;20024;-72
2024/03/27 08:20:55;;;;;;;2.55;2.00;;;;;;;21.21;37.62;98580.78;5120979;27;20031;-72
2024/03/27 08:23:21;;;;;;;2.35;2.15;;;;;;;21.21;37.39;98578.13;5120906;27;20090;-75
2024/03/27 08:25:47;;;;;;;2.55;2.30;;;;;;;21.21;37.71;98576.28;5123254;27;20184;-75
2024/03/27 08:28:13;;;;;;;2.05;1.92;;;;;;;21.17;37.67;98577.78;5118335;27;20089;-73
2024/03/27 08:30:42;;;;;;;1.90;1.80;;;;;;;21.18;37.75;98584.69;5119923;27;20031;-75
2024/03/27 08:33:08;;;;;;;2.60;2.10;;;;;;;21.10;38.42;98591.19;5116236;27;20057;-74
2024/03/27 08:35:36;;;;;;;2.50;2.25;;;;;;;21.16;38.27;98586.78;5120076;27;20040;-75
2024/03/27 08:38:03;;;;;;;2.30;2.08;;;;;;;21.08;38.04;98585.34;5123737;27;20036;-75
2024/03/27 08:40:28;;;;;;;2.58;2.03;;;;;;;21.08;38.21;98597.78;5122244;27;20072;-75
2024/03/27 08:42:54;;;;;;;3.97;2.22;;;;;;;21.09;38.25;98599.38;5122394;27;20047;-75
2024/03/27 08:45:19;;;;;;;3.60;2.20;;;;;;;21.07;38.19;98607.56;5123424;27;20054;-76
2024/03/27 08:47:45;;;;;;;3.28;1.90;;;;;;;21.11;38.15;98606.03;5119682;27;20035;-74
2024/03/27 08:50:14;;;;;;;2.22;1.92;;;;;;;21.05;38.19;98608.84;5121670;27;20039;-73
2024/03/27 08:52:39;;;;;;;2.90;2.22;;;;;;;21.04;38.31;98601.94;5099236;27;20082;-75
2024/03/27 08:55:05;;;;;;;4.03;2.58;;;;;;;21.04;37.88;98610.69;5116414;27;20092;-75
2024/03/27 08:57:31;;;;;;;4.97;2.28;;;;;;;21.02;38.25;98617.28;5121407;27;20038;-74
2024/03/27 08:59:56;;;;;;;2.35;1.92;;;;;;;21.03;37.99;98619.69;5124617;27;20043;-74
2024/03/27 09:02:22;;;;;;;3.63;2.20;;;;;;;20.95;38.35;98606.81;5117205;27;20047;-74
2024/03/27 09:04:48;;;;;;;2.55;2.22;;;;;;;21.00;38.11;98612.19;5120805;27;20038;-76
2024/03/27 09:07:14;;;;;;;3.50;2.33;;;;;;;20.94;38.10;98613.16;5119530;27;20039;-76
2024/03/27 09:09:40;;;;;;;2.95;2.10;;;;;;;20.99;38.25;98617.72;5119414;27;20050;-75
2024/03/27 09:12:05;;;;;;;3.00;2.17;;;;;;;20.97;37.95;98617.97;5098665;27;20047;-75
2024/03/27 09:14:31;;;;;;;2.83;2.20;;;;;;;20.95;38.09;98622.69;5119935;27;20043;-75
2024/03/27 09:16:57;;;;;;;4.32;2.70;;;;;;;20.90;37.99;98621.81;5115099;27;20040;-74
2024/03/27 09:19:22;;;;;;;2.75;2.10;;;;;;;20.97;38.00;98627.75;5115342;27;20044;-73
2024/03/27 09:21:48;;;;;;;2.50;2.08;;;;;;;20.95;37.82;98624.53;5120030;27;20040;-74
2024/03/27 09:24:13;;;;;;;2.95;2.20;;;;;;;21.00;37.79;98622.78;5117555;27;20039;-74
2024/03/27 09:26:39;;;;;;;3.92;2.35;;;;;;;21.23;37.45;98628.97;5088425;27;20082;-74
2024/03/27 09:29:04;;;;;;;2.58;2.10;;;;;;;21.51;37.03;98617.47;5101404;27;20367;-74
2024/03/27 09:31:30;;;;;;;2.58;1.98;;;;;;;21.63;36.39;98616.34;5120393;27;20039;-74
2024/03/27 09:33:55;;;;;;;2.35;2.05;;;;;;;21.62;36.45;98606.78;5113761;27;20043;-73
2024/03/27 09:36:22;;;;;;;2.05;1.85;;;;;;;21.62;36.32;98606.00;5116251;27;20039;-73
2024/03/27 09:38:48;;;;;;;5.53;2.35;;;;;;;21.54;36.75;98598.44;5116967;27;20039;-73
2024/03/27 09:41:14;;;;;;;2.33;2.13;;;;;;;21.51;36.76;98596.31;5119281;27;20165;-73
2024/03/27 09:43:40;;;;;;;2.63;2.05;;;;;;;21.46;37.01;98597.03;5121415;27;20055;-74
2024/03/27 09:46:06;;;;;;;2.20;1.85;;;;;;;21.48;36.70;98596.78;5115660;27;20035;-74
2024/03/27 09:48:34;;;;;;;2.33;2.08;;;;;;;21.41;36.88;98602.28;5119861;27;20050;-73
2024/03/27 09:51:04;;;;;;;3.75;2.00;;;;;;;21.39;36.90;98599.88;5121026;27;20295;-73
2024/03/27 09:53:30;;;;;;;3.92;2.10;;;;;;;21.37;37.15;98615.19;5125825;27;20038;-73
2024/03/27 09:55:56;;;;;;;2.78;2.00;;;;;;;21.33;37.02;98616.72;5121081;27;20107;-73
2024/03/27 09:58:22;;;;;;;2.33;1.98;;;;;;;21.32;36.95;98616.94;5117628;27;20721;-74
2024/03/27 10:00:48;;;;;;;2.60;2.35;;;;;;;21.30;37.18;98619.84;5120942;27;20035;-74
2024/03/27 10:03:14;;;;;;;3.13;2.03;;;;;;;21.31;36.86;98626.75;5118569;27;20104;-74
2024/03/27 10:05:42;;;;;;;1.98;1.85;;;;;;;21.24;37.11;98633.22;5120330;27;20039;-74
2024/03/27 10:08:08;;;;;;;2.88;2.10;;;;;;;21.26;37.26;98634.63;5123957;27;20092;-74
2024/03/27 10:10:34;;;;;;;1.80;1.70;;;;;;;21.22;37.27;98648.53;5124415;27;20450;-74
2024/03/27 10:13:00;;;;;;;615.58;467.55;;;;;;;21.22;37.53;98643.25;5131243;27;20049;-74
2024/03/27 10:15:30;;;;;;;517.40;465.83;;;;;;;21.17;37.22;98654.53;5121075;27;20039;-76
2024/03/27 10:17:55;;;;;;;1056.70;952.33;;;;;;;21.16;37.21;98652.13;5119335;27;20035;-74
2024/03/27 10:20:21;;;;;;;298.08;165.80;;;;;;;21.09;37.56;98654.94;5120316;27;20477;-74
2024/03/27 10:22:47;;;;;;;785.28;429.30;;;;;;;21.09;37.34;98660.25;5127623;27;20040;-75
2024/03/27 10:25:13;;;;;;;606.58;302.60;;;;;;;20.99;37.54;98665.34;5106037;27;20035;-75
2024/03/27 10:27:39;;;;;;;745.50;383.92;;;;;;;21.04;37.44;98678.69;5120831;27;20455;-75
2024/03/27 10:30:10;;;;;;;533.97;284.38;;;;;;;21.03;37.52;98690.31;5121293;27;20041;-75
2024/03/27 10:32:36;;;;;;;702.92;382.95;;;;;;;21.03;37.56;98677.88;5123059;27;20043;-75
2024/03/27 10:35:05;;;;;;;209.88;129.23;;;;;;;21.02;37.42;98686.06;5121009;27;20039;-74
2024/03/27 10:37:32;;;;;;;301.75;166.00;;;;;;;20.95;37.35;98695.97;5121005;27;20089;-75
2024/03/27 10:40:00;;;;;;;558.60;280.23;;;;;;;20.97;37.74;98699.19;5102821;27;20063;-76
2024/03/27 10:42:28;;;;;;;766.15;418.42;;;;;;;20.98;38.01;98704.25;5118452;27;20027;-73
2024/03/27 10:44:58;;;;;;;757.47;396.83;;;;;;;20.95;37.79;98717.16;5106094;27;20460;-74
2024/03/27 10:47:32;;;;;;;274.98;157.77;;;;;;;20.96;37.48;98716.91;5117405;27;20035;-72
2024/03/27 10:49:59;;;;;;;374.33;203.48;;;;;;;20.97;37.94;98715.06;5110000;27;20033;-72
2024/03/27 10:52:26;;;;;;;435.88;231.38;;;;;;;20.95;37.51;98723.25;5129755;27;20703;-73
2024/03/27 10:54:53;;;;;;;456.92;234.63;;;;;;;20.90;37.62;98727.66;5122215;27;20040;-74
2024/03/27 10:57:20;;;;;;;563.47;289.77;;;;;;;20.95;37.72;98727.72;5128258;27;20047;-74
2024/03/27 10:59:49;;;;;;;276.77;154.30;;;;;;;20.96;37.75;98732.78;5125432;27;20088;-74
2024/03/27 11:02:18;;;;;;;440.17;225.32;;;;;;;21.16;37.12;98723.59;5130586;27;20117;-74
2024/03/27 11:04:53;;;;;;;441.92;243.38;;;;;;;21.40;36.73;98736.50;5135787;27;20474;-74
2024/03/27 11:07:20;;;;;;;373.40;218.77;;;;;;;21.55;36.21;98733.31;5123989;27;20031;-74
2024/03/27 11:09:51;;;;;;;746.10;455.05;;;;;;;21.51;36.69;98736.66;5127133;27;20050;-74
2024/03/27 11:12:24;;;;;;;869.92;553.67;;;;;;;21.47;36.58;98746.91;5122572;27;20050;-75
2024/03/27 11:14:51;;;;;;;1052.03;677.28;;;;;;;21.42;36.64;98739.72;5119326;27;20064;-74
2024/03/27 11:17:18;;;;;;;1119.82;756.88;;;;;;;21.38;36.66;98748.38;5101989;27;20490;-74
2024/03/27 11:19:46;;;;;;;1146.85;826.55;;;;;;;21.35;36.62;98751.47;5126922;27;20099;-74